Time;durP1;ratioP1;P1;durP2;ratioP2;P2;SDS_P1;SDS_P2;PMS_P1;PMS_P2;Temp;Humidity;BMP_temperature;BMP_pressure;BME280_temperature;BME280_humidity;BME280_pressure;Samples;Min_cycle;Max_cycle;Signal;HPM_P1;HPM_P2
2022/04/15 00:01:32;;;;;;;;;;;;;;;16.03;49.33;93068.41;2058015;69;20054;-68
2022/04/15 00:03:58;;;;;;;;;;;;;;;16.01;48.72;93063.38;2057730;69;20054;-68
2022/04/15 00:06:24;;;;;;;;;;;;;;;15.87;49.36;93057.03;2057332;69;20391;-67
2022/04/15 00:08:50;;;;;;;;;;;;;;;16.04;48.42;93063.50;2057277;69;20680;-67
2022/04/15 00:11:15;;;;;;;;;;;;;;;15.91;49.42;93065.03;2057906;69;20074;-69
2022/04/15 00:13:41;;;;;;;;;;;;;;;15.95;48.43;93068.78;2057162;69;20046;-68
2022/04/15 00:16:07;;;;;;;;;;;;;;;15.66;49.99;93063.84;2057610;69;20062;-67
2022/04/15 00:18:33;;;;;;;;;;;;;;;15.57;50.08;93069.75;2058003;69;20478;-67
2022/04/15 00:21:00;;;;;;;;;;;;;;;15.52;49.96;93066.00;2057711;69;20093;-67
2022/04/15 00:23:26;;;;;;;;;;;;;;;15.49;50.12;93073.69;2057118;69;20377;-67
2022/04/15 00:25:52;;;;;;;;;;;;;;;15.43;50.24;93066.97;2058005;69;20573;-68
2022/04/15 00:28:18;;;;;;;;;;;;;;;15.45;50.33;93069.91;2057783;69;20127;-67
2022/04/15 00:30:43;;;;;;;;;;;;;;;15.43;49.93;93078.31;2056306;69;20050;-66
2022/04/15 00:33:09;;;;;;;;;;;;;;;15.50;49.28;93075.16;2057328;69;20506;-69
2022/04/15 00:35:34;;;;;;;;;;;;;;;15.46;49.71;93074.94;2057474;69;20517;-66
2022/04/15 00:38:00;;;;;;;;;;;;;;;15.32;49.75;93065.00;2056804;69;20066;-68
2022/04/15 00:40:25;;;;;;;;;;;;;;;15.10;50.57;93067.47;2057192;69;20098;-68
2022/04/15 00:42:51;;;;;;;;;;;;;;;15.02;51.27;93070.63;2056933;69;20064;-71
2022/04/15 00:45:17;;;;;;;;;;;;;;;15.06;50.55;93064.44;2057571;69;20049;-66
2022/04/15 00:47:42;;;;;;;;;;;;;;;15.06;50.49;93075.78;2056677;69;20054;-64
2022/04/15 00:50:08;;;;;;;;;;;;;;;14.86;50.98;93076.22;2057012;69;20061;-66
2022/04/15 00:52:38;;;;;;;;;;;;;;;14.86;50.67;93067.72;2057440;69;20073;-66
2022/04/15 00:55:04;;;;;;;;;;;;;;;14.79;50.89;93082.19;2058270;69;20090;-67
2022/04/15 00:57:34;;;;;;;;;;;;;;;14.61;52.15;93071.41;2058055;69;20193;-68
2022/04/15 01:00:01;;;;;;;;;;;;;;;14.84;48.86;93073.28;2057827;69;20133;-68
2022/04/15 01:02:27;;;;;;;;;;;;;;;14.83;51.29;93079.59;2058369;69;20054;-70
2022/04/15 01:04:55;;;;;;;;;;;;;;;14.79;51.14;93071.59;2058157;69;20061;-68
2022/04/15 01:07:22;;;;;;;;;;;;;;;14.71;51.54;93083.28;2058255;69;20061;-67
2022/04/15 01:09:50;;;;;;;;;;;;;;;14.85;51.65;93079.69;2057734;69;20050;-68
2022/04/15 01:12:17;;;;;;;;;;;;;;;14.93;49.97;93072.31;2058042;69;20053;-67
2022/04/15 01:14:43;;;;;;;;;;;;;;;14.80;51.05;93078.75;2058173;69;20509;-70
2022/04/15 01:17:08;;;;;;;;;;;;;;;14.71;51.65;93076.88;2058090;69;20050;-70
2022/04/15 01:19:34;;;;;;;;;;;;;;;14.52;52.84;93078.00;2058199;69;20185;-70
2022/04/15 01:22:01;;;;;;;;;;;;;;;14.44;52.69;93075.47;2058306;69;20463;-68
2022/04/15 01:24:28;;;;;;;;;;;;;;;14.59;52.42;93070.56;2058120;69;20058;-68
2022/04/15 01:26:53;;;;;;;;;;;;;;;14.80;51.32;93075.16;2057904;69;20060;-68
2022/04/15 01:29:19;;;;;;;;;;;;;;;14.71;52.33;93071.94;2058225;69;20046;-66
2022/04/15 01:31:44;;;;;;;;;;;;;;;14.74;52.01;93069.94;2057881;69;20050;-68
2022/04/15 01:34:10;;;;;;;;;;;;;;;14.80;51.83;93069.50;2058315;69;20046;-69
2022/04/15 01:36:36;;;;;;;;;;;;;;;14.65;52.58;93070.88;2057947;69;20069;-71
2022/04/15 01:39:01;;;;;;;;;;;;;;;14.55;53.73;93068.25;2057009;69;20626;-68
2022/04/15 01:41:27;;;;;;;;;;;;;;;14.41;53.27;93065.38;2057554;69;20474;-68
2022/04/15 01:43:53;;;;;;;;;;;;;;;14.45;53.11;93065.59;2057749;69;20053;-70
2022/04/15 01:46:18;;;;;;;;;;;;;;;14.61;51.67;93070.66;2058082;69;20058;-69
2022/04/15 01:48:43;;;;;;;;;;;;;;;14.58;52.21;93069.09;2058452;69;20501;-69
2022/04/15 01:51:09;;;;;;;;;;;;;;;14.68;51.15;93064.69;2058097;69;20060;-69
2022/04/15 01:53:34;;;;;;;;;;;;;;;14.60;52.65;93066.38;2057291;69;20047;-69
2022/04/15 01:56:00;;;;;;;;;;;;;;;14.57;52.27;93071.22;2054934;69;20054;-67
2022/04/15 01:58:25;;;;;;;;;;;;;;;14.23;53.43;93067.25;2060405;69;20461;-69
2022/04/15 02:00:51;;;;;;;;;;;;;;;14.57;52.22;93079.72;2058064;69;20046;-69
2022/04/15 02:03:16;;;;;;;;;;;;;;;14.64;52.19;93080.75;2057891;69;20185;-71
2022/04/15 02:05:42;;;;;;;;;;;;;;;14.53;53.17;93078.75;2057570;69;20076;-70
2022/04/15 02:08:07;;;;;;;;;;;;;;;14.57;51.95;93079.72;2057395;69;20486;-69
2022/04/15 02:10:33;;;;;;;;;;;;;;;14.24;52.84;93085.72;2058059;69;20046;-68
2022/04/15 02:12:58;;;;;;;;;;;;;;;14.52;51.21;93088.59;2057750;69;20141;-67
2022/04/15 02:15:24;;;;;;;;;;;;;;;14.24;52.58;93085.72;2060975;69;20508;-70
2022/04/15 02:17:49;;;;;;;;;;;;;;;14.26;52.77;93079.44;2058018;69;20490;-70
2022/04/15 02:20:15;;;;;;;;;;;;;;;14.17;53.53;93081.84;2058127;69;20061;-72
2022/04/15 02:22:40;;;;;;;;;;;;;;;14.13;53.19;93083.72;2057851;69;20058;-69
2022/04/15 02:25:06;;;;;;;;;;;;;;;14.05;53.89;93086.84;2057991;69;20062;-72
2022/04/15 02:27:31;;;;;;;;;;;;;;;13.94;53.49;93079.16;2057483;69;20514;-68
2022/04/15 02:29:57;;;;;;;;;;;;;;;14.04;53.36;93084.63;2058059;69;20049;-68
2022/04/15 02:32:23;;;;;;;;;;;;;;;13.91;53.23;93080.41;2057987;69;20066;-68
2022/04/15 02:34:48;;;;;;;;;;;;;;;13.90;53.02;93078.94;2057734;69;20052;-69
2022/04/15 02:37:14;;;;;;;;;;;;;;;13.96;52.45;93080.00;2058056;69;20149;-70
2022/04/15 02:39:39;;;;;;;;;;;;;;;13.92;52.96;93088.25;2057800;69;20244;-67
2022/04/15 02:42:05;;;;;;;;;;;;;;;13.87;53.89;93086.56;2057800;69;20435;-69
2022/04/15 02:44:30;;;;;;;;;;;;;;;13.90;52.77;93093.09;2058055;69;20090;-68
2022/04/15 02:46:58;;;;;;;;;;;;;;;13.74;53.80;93090.09;2058228;69;20115;-69
2022/04/15 02:49:27;;;;;;;;;;;;;;;13.90;51.16;93095.91;2058019;69;20054;-72
2022/04/15 02:51:53;;;;;;;;;;;;;;;13.70;53.35;93104.03;2057711;69;20078;-71
2022/04/15 02:54:18;;;;;;;;;;;;;;;13.76;53.54;93106.47;2057739;69;20054;-71
2022/04/15 02:56:44;;;;;;;;;;;;;;;14.27;49.43;93107.13;2058241;69;20055;-71
2022/04/15 02:59:09;;;;;;;;;;;;;;;13.59;54.17;93105.53;2057286;69;20058;-69
2022/04/15 03:01:34;;;;;;;;;;;;;;;13.70;53.53;93101.22;2058611;69;20143;-68
2022/04/15 03:04:00;;;;;;;;;;;;;;;13.45;55.12;93104.75;2057707;69;20137;-70
2022/04/15 03:06:25;;;;;;;;;;;;;;;13.46;54.90;93104.13;2058159;69;20076;-70
2022/04/15 03:08:51;;;;;;;;;;;;;;;13.61;54.43;93111.31;2058417;69;20101;-69
2022/04/15 03:11:16;;;;;;;;;;;;;;;13.51;54.30;93105.06;2058490;69;20069;-66
2022/04/15 03:13:42;;;;;;;;;;;;;;;13.60;53.54;93100.63;2057040;69;20541;-67
2022/04/15 03:16:07;;;;;;;;;;;;;;;13.23;55.69;93096.47;2058720;69;20500;-67
2022/04/15 03:18:33;;;;;;;;;;;;;;;13.53;53.91;93090.34;2058489;69;20049;-68
2022/04/15 03:20:58;;;;;;;;;;;;;;;13.60;54.44;93083.66;2057889;69;20488;-67
2022/04/15 03:23:24;;;;;;;;;;;;;;;13.59;53.44;93090.66;2058175;69;20168;-66
2022/04/15 03:25:49;;;;;;;;;;;;;;;13.56;52.28;93089.84;2058641;69;20484;-68
2022/04/15 03:28:15;;;;;;;;;;;;;;;13.34;54.98;93097.06;2057809;69;20050;-70
2022/04/15 03:30:40;;;;;;;;;;;;;;;13.33;54.12;93101.97;2058638;69;20085;-71
2022/04/15 03:33:06;;;;;;;;;;;;;;;13.12;54.16;93088.00;2057983;69;20078;-71
2022/04/15 03:35:31;;;;;;;;;;;;;;;13.24;54.86;93097.22;2058537;69;20481;-68
2022/04/15 03:37:57;;;;;;;;;;;;;;;13.21;55.13;93101.25;2058414;69;20514;-69
2022/04/15 03:40:23;;;;;;;;;;;;;;;13.16;55.95;93097.44;2055312;69;20086;-68
2022/04/15 03:42:49;;;;;;;;;;;;;;;13.28;54.28;93105.91;2057700;69;20052;-68
2022/04/15 03:45:18;;;;;;;;;;;;;;;13.60;49.83;93106.28;2058416;69;20066;-67
2022/04/15 03:47:43;;;;;;;;;;;;;;;13.35;51.35;93107.75;2058197;69;20062;-68
2022/04/15 03:50:10;;;;;;;;;;;;;;;13.22;55.00;93109.13;2057833;69;20050;-67
2022/04/15 03:52:38;;;;;;;;;;;;;;;13.21;55.24;93113.28;2057836;69;20163;-67
2022/04/15 03:55:04;;;;;;;;;;;;;;;13.16;54.77;93110.84;2056594;69;20497;-68
2022/04/15 03:57:29;;;;;;;;;;;;;;;13.40;54.53;93117.91;2058242;69;20050;-69
2022/04/15 03:59:55;;;;;;;;;;;;;;;13.35;55.57;93116.22;2058231;69;20057;-69
2022/04/15 04:02:20;;;;;;;;;;;;;;;13.39;55.73;93115.72;2058381;69;20080;-70
2022/04/15 04:04:46;;;;;;;;;;;;;;;13.47;53.83;93113.34;2057981;69;20062;-68
2022/04/15 04:07:11;;;;;;;;;;;;;;;13.42;54.11;93111.63;2058036;69;20057;-69
2022/04/15 04:09:37;;;;;;;;;;;;;;;13.37;55.15;93101.44;2058391;69;20046;-67
2022/04/15 04:12:02;;;;;;;;;;;;;;;13.26;55.80;93094.50;2058419;69;20177;-68
2022/04/15 04:14:27;;;;;;;;;;;;;;;13.42;52.17;93101.09;2058085;69;20623;-67
2022/04/15 04:16:53;;;;;;;;;;;;;;;13.37;54.77;93099.34;2057973;69;20416;-67
2022/04/15 04:19:18;;;;;;;;;;;;;;;13.43;54.63;93096.16;2058431;69;20116;-67
2022/04/15 04:21:44;;;;;;;;;;;;;;;13.47;55.12;93099.94;2058340;69;20070;-67
2022/04/15 04:24:09;;;;;;;;;;;;;;;13.40;56.09;93106.59;2057563;69;20109;-67
2022/04/15 04:26:34;;;;;;;;;;;;;;;13.31;56.40;93120.91;2058356;69;20053;-67
2022/04/15 04:29:00;;;;;;;;;;;;;;;13.56;53.46;93120.94;2058092;69;20504;-68
2022/04/15 04:31:25;;;;;;;;;;;;;;;13.55;54.91;93130.03;2057471;69;20521;-67
2022/04/15 04:33:51;;;;;;;;;;;;;;;13.34;55.93;93128.91;2057102;69;20088;-67
2022/04/15 04:36:17;;;;;;;;;;;;;;;13.45;54.87;93130.94;2058154;69;20073;-70
2022/04/15 04:38:42;;;;;;;;;;;;;;;13.63;53.94;93141.81;2057327;69;20148;-68
2022/04/15 04:41:08;;;;;;;;;;;;;;;13.57;55.92;93145.03;2058311;69;20078;-70
2022/04/15 04:43:33;;;;;;;;;;;;;;;13.55;55.57;93135.69;2058219;69;20052;-67
2022/04/15 04:45:58;;;;;;;;;;;;;;;13.44;55.97;93140.03;2058187;69;20150;-68
2022/04/15 04:48:24;;;;;;;;;;;;;;;13.17;57.25;93138.50;2057795;69;20046;-69
2022/04/15 04:50:50;;;;;;;;;;;;;;;13.04;57.48;93138.41;2057367;69;20117;-69
2022/04/15 04:53:16;;;;;;;;;;;;;;;13.34;55.85;93142.31;2057774;69;20066;-69
2022/04/15 04:55:42;;;;;;;;;;;;;;;13.32;57.65;93142.16;2058431;69;20054;-67
2022/04/15 04:58:07;;;;;;;;;;;;;;;13.40;56.94;93134.16;2058368;69;20458;-69
2022/04/15 05:00:32;;;;;;;;;;;;;;;13.47;56.53;93141.66;2058294;69;20081;-71
2022/04/15 05:02:59;;;;;;;;;;;;;;;13.62;55.39;93137.53;2058205;69;20181;-69
2022/04/15 05:05:25;;;;;;;;;;;;;;;13.65;56.08;93139.09;2057587;69;20050;-71
2022/04/15 05:07:51;;;;;;;;;;;;;;;13.72;56.11;93138.81;2058090;69;20054;-69
2022/04/15 05:10:16;;;;;;;;;;;;;;;13.75;56.51;93141.78;2057864;69;20046;-70
2022/04/15 05:12:42;;;;;;;;;;;;;;;13.81;56.28;93148.50;2058458;69;20180;-72
2022/04/15 05:15:07;;;;;;;;;;;;;;;13.85;54.26;93151.56;2057120;69;20077;-73
2022/04/15 05:17:33;;;;;;;;;;;;;;;13.70;54.66;93144.38;2058466;69;20045;-69
2022/04/15 05:19:58;;;;;;;;;;;;;;;13.97;54.65;93154.31;2058163;69;20201;-68
2022/04/15 05:22:24;;;;;;;;;;;;;;;13.81;56.69;93159.81;2057486;69;20097;-67
2022/04/15 05:24:50;;;;;;;;;;;;;;;13.84;55.26;93167.06;2058108;69;20050;-69
2022/04/15 05:27:15;;;;;;;;;;;;;;;13.69;55.77;93164.78;2057296;69;20050;-68
2022/04/15 05:29:40;;;;;;;;;;;;;;;13.68;55.09;93163.31;2058088;69;20046;-69
2022/04/15 05:32:06;;;;;;;;;;;;;;;13.79;55.26;93170.28;2056603;69;20053;-72
2022/04/15 05:34:31;;;;;;;;;;;;;;;13.79;55.76;93170.28;2057345;69;20053;-71
2022/04/15 05:36:57;;;;;;;;;;;;;;;13.95;55.79;93169.09;2058223;69;20056;-70
2022/04/15 05:39:22;;;;;;;;;;;;;;;14.05;55.40;93165.38;2057891;69;20081;-69
2022/04/15 05:41:48;;;;;;;;;;;;;;;13.95;56.31;93163.44;2057487;69;20170;-71
2022/04/15 05:44:14;;;;;;;;;;;;;;;14.05;53.88;93162.53;2057352;69;20047;-72
2022/04/15 05:46:42;;;;;;;;;;;;;;;14.09;55.82;93174.09;2058408;69;20069;-71
2022/04/15 05:49:13;;;;;;;;;;;;;;;13.51;57.62;93178.63;2058135;69;20116;-70
2022/04/15 05:51:39;;;;;;;;;;;;;;;13.27;58.01;93185.69;2057405;69;20198;-70
2022/04/15 05:54:04;;;;;;;;;;;;;;;13.76;56.17;93186.41;2058165;69;20631;-70
2022/04/15 05:56:29;;;;;;;;;;;;;;;13.61;57.43;93196.19;2058238;69;20042;-70
2022/04/15 05:58:55;;;;;;;;;;;;;;;13.90;55.57;93203.47;2058104;69;20141;-70
2022/04/15 06:01:21;;;;;;;;;;;;;;;13.65;56.17;93209.81;2057778;69;20402;-70
2022/04/15 06:03:46;;;;;;;;;;;;;;;13.71;52.63;93216.56;2058028;69;20498;-69
2022/04/15 06:06:12;;;;;;;;;;;;;;;13.72;54.81;93209.56;2058239;69;20153;-73
2022/04/15 06:08:37;;;;;;;;;;;;;;;13.92;54.95;93215.63;2058209;69;20053;-72
2022/04/15 06:11:03;;;;;;;;;;;;;;;13.98;56.66;93218.09;2058318;69;20078;-71
2022/04/15 06:13:29;;;;;;;;;;;;;;;14.03;57.21;93222.63;2058389;69;20050;-70
2022/04/15 06:15:58;;;;;;;;;;;;;;;14.12;55.62;93218.13;2058275;69;20145;-71
2022/04/15 06:18:34;;;;;;;;;;;;;;;13.95;59.77;93217.22;2058144;69;20053;-70
2022/04/15 06:21:02;;;;;;;;;;;;;;;14.09;59.84;93222.94;2058318;69;20050;-70
2022/04/15 06:23:28;;;;;;;;;;;;;;;13.98;60.95;93215.97;2058237;69;20046;-69
2022/04/15 06:25:53;;;;;;;;;;;;;;;13.98;61.22;93218.81;2058341;69;20052;-69
2022/04/15 06:28:21;;;;;;;;;;;;;;;14.12;57.65;93221.72;2058360;69;20050;-70
2022/04/15 06:30:47;;;;;;;;;;;;;;;14.44;55.66;93225.59;2057807;69;20046;-70
2022/04/15 06:33:14;;;;;;;;;;;;;;;14.40;57.53;93236.69;2058336;69;20165;-70
2022/04/15 06:35:40;;;;;;;;;;;;;;;14.22;58.45;93236.44;2058698;69;20062;-69
2022/04/15 06:38:05;;;;;;;;;;;;;;;14.22;57.93;93232.84;2058673;69;20053;-70
2022/04/15 06:40:31;;;;;;;;;;;;;;;14.18;57.32;93235.47;2058350;69;20122;-70
2022/04/15 06:42:56;;;;;;;;;;;;;;;14.07;57.86;93236.25;2058826;69;20050;-69
2022/04/15 06:45:22;;;;;;;;;;;;;;;14.01;56.94;93244.41;2058890;69;20077;-72
2022/04/15 06:47:47;;;;;;;;;;;;;;;14.07;59.34;93244.75;2058323;69;20050;-70
2022/04/15 06:50:13;;;;;;;;;;;;;;;14.13;58.96;93247.91;2058799;69;20513;-70
2022/04/15 06:52:38;;;;;;;;;;;;;;;14.20;55.86;93244.81;2058639;69;20099;-68
2022/04/15 06:55:05;;;;;;;;;;;;;;;14.27;57.25;93253.66;2058817;69;20074;-69
2022/04/15 06:57:31;;;;;;;;;;;;;;;14.08;59.12;93249.78;2058880;69;20044;-70
2022/04/15 06:59:57;;;;;;;;;;;;;;;14.10;60.00;93246.31;2058792;69;20050;-71
2022/04/15 07:02:23;;;;;;;;;;;;;;;13.95;62.28;93256.13;2058907;69;20068;-72
2022/04/15 07:04:48;;;;;;;;;;;;;;;13.99;62.70;93259.91;2058818;69;20054;-71
2022/04/15 07:07:14;;;;;;;;;;;;;;;14.06;62.43;93260.97;2058812;69;20052;-71
2022/04/15 07:09:39;;;;;;;;;;;;;;;13.87;61.54;93255.63;2058699;69;20603;-70
2022/04/15 07:12:05;;;;;;;;;;;;;;;14.21;58.50;93259.72;2058801;69;20516;-69
2022/04/15 07:14:33;;;;;;;;;;;;;;;13.89;60.08;93255.78;2058517;69;20594;-70
2022/04/15 07:16:59;;;;;;;;;;;;;;;14.10;59.82;93252.72;2058782;69;20077;-73
2022/04/15 07:19:24;;;;;;;;;;;;;;;14.01;62.35;93253.63;2058271;69;20057;-72
2022/04/15 07:21:50;;;;;;;;;;;;;;;13.91;62.68;93248.13;2058781;69;20050;-68
2022/04/15 07:24:15;;;;;;;;;;;;;;;14.19;62.39;93256.75;2058622;69;20053;-70
2022/04/15 07:26:41;;;;;;;;;;;;;;;13.61;64.55;93254.88;2058844;69;20116;-71
2022/04/15 07:29:06;;;;;;;;;;;;;;;13.13;64.82;93248.50;2058874;69;20050;-71
2022/04/15 07:31:33;;;;;;;;;;;;;;;13.99;63.19;93250.69;2058782;69;20045;-72
2022/04/15 07:33:58;;;;;;;;;;;;;;;14.13;63.15;93250.75;2058722;69;20568;-70
2022/04/15 07:39:03;;;;;;;;;;;;;;;13.99;61.20;93251.41;2058066;69;20046;-69
2022/04/15 07:41:28;;;;;;;;;;;;;;;14.13;60.64;93254.31;2058226;69;20453;-69
2022/04/15 07:43:54;;;;;;;;;;;;;;;14.12;62.92;93255.69;2058785;69;20038;-69
2022/04/15 07:46:19;;;;;;;;;;;;;;;14.74;56.24;93257.69;2058799;69;20058;-70
2022/04/15 07:48:45;;;;;;;;;;;;;;;14.78;58.34;93260.03;2058717;69;20046;-69
2022/04/15 07:51:10;;;;;;;;;;;;;;;14.58;60.61;93245.50;2058717;69;20097;-68
2022/04/15 07:53:36;;;;;;;;;;;;;;;15.03;56.08;93247.16;2058543;69;20395;-70
2022/04/15 07:56:01;;;;;;;;;;;;;;;15.11;58.87;93261.75;2058819;69;20046;-70
2022/04/15 07:58:27;;;;;;;;;;;;;;;15.32;57.24;93258.63;2058765;69;20050;-69
2022/04/15 08:00:52;;;;;;;;;;;;;;;15.36;56.50;93256.00;2058682;69;20136;-69
2022/04/15 08:03:20;;;;;;;;;;;;;;;15.87;55.20;93250.09;2058703;69;20161;-69
2022/04/15 08:05:45;;;;;;;;;;;;;;;16.08;52.38;93249.00;2058703;69;20137;-69
2022/04/15 08:08:11;;;;;;;;;;;;;;;16.08;55.13;93253.94;2058578;69;20138;-69
2022/04/15 08:10:37;;;;;;;;;;;;;;;16.22;53.90;93252.53;2058677;69;20177;-70
2022/04/15 08:13:02;;;;;;;;;;;;;;;16.39;52.70;93251.19;2058666;69;20085;-69
2022/04/15 08:15:28;;;;;;;;;;;;;;;16.14;53.30;93252.13;2058676;69;20054;-69
2022/04/15 08:17:53;;;;;;;;;;;;;;;16.55;51.15;93247.69;2058613;69;20065;-69
2022/04/15 08:20:18;;;;;;;;;;;;;;;16.87;51.13;93252.06;2058627;69;20058;-69
2022/04/15 08:22:44;;;;;;;;;;;;;;;17.07;50.06;93249.41;2058546;69;20050;-69
2022/04/15 08:25:10;;;;;;;;;;;;;;;17.16;48.94;93256.94;2058711;69;20134;-69
2022/04/15 08:27:35;;;;;;;;;;;;;;;16.58;52.41;93254.91;2058792;69;20050;-69
2022/04/15 08:30:01;;;;;;;;;;;;;;;17.33;48.95;93254.84;2058825;69;20081;-71
2022/04/15 08:32:33;;;;;;;;;;;;;;;17.28;47.63;93251.81;2058778;69;20054;-69
2022/04/15 08:35:05;;;;;;;;;;;;;;;17.38;49.51;93257.22;2058714;69;20505;-67
2022/04/15 08:37:33;;;;;;;;;;;;;;;17.43;50.35;93258.84;2058521;69;20053;-69
2022/04/15 08:39:58;;;;;;;;;;;;;;;17.16;50.93;93256.94;2058570;69;20130;-71
2022/04/15 08:42:24;;;;;;;;;;;;;;;17.37;49.66;93255.75;2058576;69;20193;-69
2022/04/15 08:44:50;;;;;;;;;;;;;;;17.24;49.64;93259.44;2058751;69;20057;-70
2022/04/15 08:47:16;;;;;;;;;;;;;;;17.49;47.91;93264.81;2058576;69;20082;-68
2022/04/15 08:49:42;;;;;;;;;;;;;;;18.00;48.77;93255.63;2058584;69;20052;-70
2022/04/15 08:52:09;;;;;;;;;;;;;;;18.18;47.98;93260.63;2058574;69;20494;-69
2022/04/15 08:54:35;;;;;;;;;;;;;;;18.72;49.08;93255.72;2058505;69;20134;-69
2022/04/15 08:57:00;;;;;;;;;;;;;;;19.16;46.12;93258.81;2058428;69;20070;-71
2022/04/15 08:59:26;;;;;;;;;;;;;;;18.53;47.41;93254.22;2058530;69;20062;-69
2022/04/15 09:01:51;;;;;;;;;;;;;;;18.94;48.51;93250.88;2058678;69;20082;-72
2022/04/15 09:04:18;;;;;;;;;;;;;;;19.21;46.54;93254.75;2058688;69;20054;-68
2022/04/15 09:06:43;;;;;;;;;;;;;;;19.23;45.08;93246.25;2058601;69;20152;-69
2022/04/15 09:09:11;;;;;;;;;;;;;;;19.62;43.94;93248.41;2057955;69;20141;-69
2022/04/15 09:11:38;;;;;;;;;;;;;;;19.93;43.92;93244.53;2058555;69;20057;-72
2022/04/15 09:14:08;;;;;;;;;;;;;;;20.02;43.09;93249.13;2056759;69;20513;-71
2022/04/15 09:16:41;;;;;;;;;;;;;;;20.56;44.73;93246.63;2054257;69;20097;-69
2022/04/15 09:19:07;;;;;;;;;;;;;;;20.56;44.32;93237.31;2054402;69;20129;-73
2022/04/15 09:21:33;;;;;;;;;;;;;;;20.55;43.41;93239.47;2055130;69;20047;-73
2022/04/15 09:23:58;;;;;;;;;;;;;;;20.78;43.95;93238.03;2054993;70;20491;-71
2022/04/15 09:26:24;;;;;;;;;;;;;;;20.40;43.88;93246.09;2055140;70;20058;-70
2022/04/15 09:28:50;;;;;;;;;;;;;;;20.18;44.00;93237.50;2055097;69;20122;-72
2022/04/15 09:31:17;;;;;;;;;;;;;;;19.78;44.82;93234.69;2055126;70;20490;-70
2022/04/15 09:33:50;;;;;;;;;;;;;;;20.59;45.74;93232.41;2055174;69;20111;-71
2022/04/15 09:36:23;;;;;;;;;;;;;;;20.48;43.99;93232.09;2055148;69;20047;-69
2022/04/15 09:38:50;;;;;;;;;;;;;;;19.34;45.31;93238.81;2054921;70;20430;-70
2022/04/15 09:41:23;;;;;;;;;;;;;;;20.24;45.24;93236.97;2055076;69;20081;-70
2022/04/15 09:43:51;;;;;;;;;;;;;;;19.77;45.38;93236.09;2054990;69;20062;-69
2022/04/15 09:46:17;;;;;;;;;;;;;;;20.25;45.66;93224.88;2054994;69;20054;-70
2022/04/15 09:49:02;;;;;;;;;;;;;;;19.25;48.18;93232.78;2055146;69;20069;-70
2022/04/15 09:51:34;;;;;;;;;;;;;;;19.10;48.32;93222.22;2055038;69;20050;-74
2022/04/15 09:54:01;;;;;;;;;;;;;;;19.51;47.31;93235.84;2055112;69;20051;-69
2022/04/15 09:56:26;;;;;;;;;;;;;;;20.14;47.39;93225.19;2055108;69;20054;-69
2022/04/15 09:58:56;;;;;;;;;;;;;;;21.05;45.83;93233.84;2055122;69;20419;-70
2022/04/15 10:01:22;;;;;;;;;;;;;;;21.81;43.19;93222.47;2055102;69;20501;-68
2022/04/15 10:03:49;;;;;;;;;;;;;;;20.90;43.27;93216.94;2055141;69;20148;-69
2022/04/15 10:06:15;;;;;;;;;;;;;;;20.02;44.87;93214.84;2055127;69;20051;-70
2022/04/15 10:08:42;;;;;;;;;;;;;;;21.35;44.86;93209.69;2054974;69;20521;-68
2022/04/15 10:11:08;;;;;;;;;;;;;;;22.40;43.50;93211.09;2054429;70;20050;-69
2022/04/15 10:13:35;;;;;;;;;;;;;;;23.37;41.71;93209.78;2055015;69;20498;-70
2022/04/15 10:16:01;;;;;;;;;;;;;;;23.44;39.83;93207.75;2054487;70;20062;-70
2022/04/15 10:18:28;;;;;;;;;;;;;;;24.15;39.24;93219.94;2054926;69;20062;-70
2022/04/15 10:20:54;;;;;;;;;;;;;;;24.02;38.37;93205.34;2054927;70;20634;-68
2022/04/15 10:23:20;;;;;;;;;;;;;;;22.36;40.80;93194.53;2054877;70;20124;-68
2022/04/15 10:25:46;;;;;;;;;;;;;;;23.86;39.17;93196.38;2055016;69;20204;-69
2022/04/15 10:28:18;;;;;;;;;;;;;;;24.09;38.44;93194.66;2055163;69;20165;-67
2022/04/15 10:30:51;;;;;;;;;;;;;;;22.33;40.51;93190.13;2055122;70;20074;-68
2022/04/15 10:33:30;;;;;;;;;;;;;;;22.45;40.79;93193.31;2055028;69;20430;-69
2022/04/15 10:36:09;;;;;;;;;;;;;;;21.07;43.81;93193.09;2054979;69;20408;-69
2022/04/15 10:38:35;;;;;;;;;;;;;;;22.21;42.49;93192.69;2054516;70;20058;-69
2022/04/15 10:41:11;;;;;;;;;;;;;;;22.68;41.41;93202.44;2055020;70;20050;-68
2022/04/15 10:43:36;;;;;;;;;;;;;;;22.66;40.92;93188.78;2054959;69;20414;-68
2022/04/15 10:46:11;;;;;;;;;;;;;;;24.45;37.28;93191.72;2054986;70;20066;-68
2022/04/15 10:48:38;;;;;;;;;;;;;;;25.10;35.92;93184.09;2054902;69;20431;-68
2022/04/15 10:51:21;;;;;;;;;;;;;;;24.87;36.23;93188.06;2054536;69;20070;-70
2022/04/15 10:53:47;;;;;;;;;;;;;;;22.83;39.18;93196.34;2054860;69;20562;-68
2022/04/15 10:56:14;;;;;;;;;;;;;;;23.34;38.31;93180.25;2054909;70;20046;-71
2022/04/15 11:02:00;;;;;;;;;;;;;;;21.84;40.76;93183.13;2055220;70;20117;-70
2022/04/15 11:04:26;;;;;;;;;;;;;;;21.87;41.63;93178.91;2054991;69;20064;-67
2022/04/15 11:06:52;;;;;;;;;;;;;;;20.93;43.16;93176.25;2054922;69;20066;-68
2022/04/15 11:09:21;;;;;;;;;;;;;;;20.41;44.35;93175.34;2054824;69;20054;-67
2022/04/15 11:11:49;;;;;;;;;;;;;;;20.14;44.91;93179.47;2054940;69;20426;-67
2022/04/15 11:14:16;;;;;;;;;;;;;;;20.12;44.62;93174.41;2054340;69;20061;-68
2022/04/15 11:16:46;;;;;;;;;;;;;;;21.21;43.69;93175.63;2054331;70;20065;-68
2022/04/15 11:19:17;;;;;;;;;;;;;;;20.64;44.37;93168.94;2054839;69;20053;-69
2022/04/15 11:21:45;;;;;;;;;;;;;;;21.88;42.74;93165.31;2055158;69;20066;-67
2022/04/15 11:24:11;;;;;;;;;;;;;;;23.12;39.96;93174.03;2055207;69;20166;-69
2022/04/15 11:26:38;;;;;;;;;;;;;;;26.17;35.30;93177.50;2055383;69;20050;-69
2022/04/15 11:29:05;;;;;;;;;;;;;;;26.91;33.48;93166.59;2054864;70;20066;-68
2022/04/15 11:31:37;;;;;;;;;;;;;;;26.02;33.56;93175.88;2055447;69;20038;-68
2022/04/15 11:34:06;;;;;;;;;;;;;;;23.15;38.36;93169.09;2055250;69;20054;-68
2022/04/15 11:36:32;;;;;;;;;;;;;;;22.37;40.09;93164.44;2055330;69;20050;-68
2022/04/15 11:38:59;;;;;;;;;;;;;;;22.75;39.87;93155.25;2055259;69;20108;-68
2022/04/15 11:41:25;;;;;;;;;;;;;;;22.04;40.69;93157.88;2055345;69;20050;-69
2022/04/15 11:44:06;;;;;;;;;;;;;;;21.72;41.44;93157.75;2055242;69;20063;-68
2022/04/15 11:46:38;;;;;;;;;;;;;;;21.93;41.38;93156.13;2055342;69;20426;-67
2022/04/15 11:49:11;;;;;;;;;;;;;;;22.10;41.55;93148.69;2055262;69;20127;-70
2022/04/15 11:51:36;;;;;;;;;;;;;;;22.67;40.62;93150.06;2055424;69;20564;-68
2022/04/15 11:54:01;;;;;;;;;;;;;;;22.79;40.39;93150.34;2055138;69;20054;-69
2022/04/15 11:56:29;;;;;;;;;;;;;;;25.25;37.37;93152.63;2055423;69;20046;-68
2022/04/15 11:58:54;;;;;;;;;;;;;;;23.72;38.36;93144.38;2055263;69;20135;-68
2022/04/15 12:01:31;;;;;;;;;;;;;;;23.17;38.94;93155.47;2055269;69;20134;-68
2022/04/15 12:03:57;;;;;;;;;;;;;;;21.74;41.10;93149.19;2055279;69;20046;-70
2022/04/15 12:06:22;;;;;;;;;;;;;;;21.67;41.37;93149.69;2055330;69;20050;-68
2022/04/15 12:08:48;;;;;;;;;;;;;;;20.88;42.76;93137.47;2055221;69;20050;-67
2022/04/15 12:11:14;;;;;;;;;;;;;;;21.84;41.57;93140.13;2055377;69;20073;-68
2022/04/15 12:13:39;;;;;;;;;;;;;;;21.98;40.78;93142.63;2054798;70;20081;-70
2022/04/15 12:16:05;;;;;;;;;;;;;;;22.05;40.77;93139.25;2055249;69;20038;-68
2022/04/15 12:18:30;;;;;;;;;;;;;;;21.35;42.05;93138.84;2055279;69;20047;-69
2022/04/15 12:20:56;;;;;;;;;;;;;;;20.55;43.39;93135.75;2055192;69;20055;-70
2022/04/15 12:23:23;;;;;;;;;;;;;;;20.36;44.39;93134.44;2055308;69;20066;-69
2022/04/15 12:26:09;;;;;;;;;;;;;;;20.83;43.94;93133.03;2055147;69;20046;-69
2022/04/15 12:31:29;;;;;;;;;;;;;;;21.85;40.69;93124.38;2055111;70;20510;-69
2022/04/15 12:33:55;;;;;;;;;;;;;;;21.96;40.63;93123.25;2055124;69;20061;-69
2022/04/15 12:36:21;;;;;;;;;;;;;;;21.38;40.22;93122.44;2055337;69;20046;-71
2022/04/15 12:38:59;;;;;;;;;;;;;;;21.90;38.85;93128.09;2055060;69;20047;-69
2022/04/15 12:41:35;;;;;;;;;;;;;;;22.17;38.57;93115.91;2055165;69;20121;-72
2022/04/15 12:44:10;;;;;;;;;;;;;;;23.17;36.70;93123.16;2055142;69;20182;-70
2022/04/15 12:46:37;;;;;;;;;;;;;;;23.66;35.18;93124.88;2055201;69;20461;-73
2022/04/15 12:49:02;;;;;;;;;;;;;;;24.31;33.32;93113.78;2055152;69;20121;-71
2022/04/15 12:51:37;;;;;;;;;;;;;;;24.69;32.72;93116.53;2055216;69;20062;-71
2022/04/15 12:54:06;;;;;;;;;;;;;;;23.55;33.92;93111.72;2055040;69;20498;-70